createdAt,value
2018-09-09T07:19:29.519Z,17.60
2018-09-09T07:21:57.626Z,17.90
2018-09-09T07:24:25.761Z,18.50
2018-09-09T07:26:53.847Z,19.50
2018-09-09T07:29:21.960Z,20.60
2018-09-09T07:31:50.078Z,21.90
2018-09-09T07:34:18.228Z,23.10
2018-09-09T07:36:46.308Z,23.60
2018-09-09T07:39:14.437Z,23.70
2018-09-09T07:41:42.538Z,23.50
2018-09-09T07:44:10.716Z,23.50
2018-09-09T07:46:38.827Z,23.70
2018-09-09T07:49:07.003Z,23.90
2018-09-09T07:51:35.240Z,23.90
2018-09-09T07:54:03.364Z,23.70
2018-09-09T07:56:31.494Z,23.40
2018-09-09T07:58:59.605Z,23.10
2018-09-09T08:01:27.734Z,22.80
2018-09-09T08:03:55.981Z,22.60
2018-09-09T08:06:24.099Z,22.40
2018-09-09T08:08:52.218Z,22.10
2018-09-09T08:11:20.323Z,22.00
2018-09-09T08:13:49.834Z,22.10
2018-09-09T08:16:17.920Z,22.10
2018-09-09T08:18:46.033Z,22.10
2018-09-09T08:21:14.136Z,22.20
2018-09-09T08:23:42.344Z,22.30
2018-09-09T08:26:10.376Z,22.40
2018-09-09T08:28:38.491Z,22.60
2018-09-09T08:31:06.610Z,22.70
2018-09-09T08:33:34.755Z,22.70
2018-09-09T08:36:02.889Z,22.70
2018-09-09T08:38:31.032Z,22.70
2018-09-09T08:41:00.134Z,22.70
2018-09-09T08:43:28.318Z,22.60
2018-09-09T08:45:56.439Z,22.40
2018-09-09T08:48:24.642Z,22.30
2018-09-09T08:50:52.748Z,22.40
2018-09-09T08:53:20.939Z,22.60
2018-09-09T08:55:49.084Z,22.80
2018-09-09T08:58:17.255Z,23.00
2018-09-09T09:00:45.422Z,23.00
2018-09-09T09:03:13.544Z,23.00
2018-09-09T09:05:41.727Z,22.90
2018-09-09T09:08:09.903Z,23.00
2018-09-09T09:10:37.995Z,23.10
2018-09-09T09:18:02.000Z,24.10
2018-09-09T09:20:30.194Z,24.30
2018-09-09T09:22:58.687Z,24.30
2018-09-09T09:25:26.861Z,24.40
2018-09-09T09:30:22.984Z,24.50
2018-09-09T09:35:18.972Z,24.30
2018-09-09T09:37:47.092Z,24.30
2018-09-09T09:42:43.181Z,23.90
2018-09-09T09:47:40.315Z,23.50
2018-09-09T09:50:08.440Z,23.50
2018-09-09T09:55:04.533Z,23.10
2018-09-09T09:57:32.613Z,23.10
2018-09-09T10:00:00.776Z,23.00
2018-09-09T10:02:28.889Z,23.00
2018-09-09T10:07:25.003Z,22.80
2018-09-09T10:12:21.013Z,22.70
2018-09-09T10:14:49.164Z,22.40
2018-09-09T10:17:17.284Z,22.30
2018-09-09T10:22:13.287Z,22.40
2018-09-09T10:24:41.392Z,22.40
2018-09-09T10:27:09.491Z,22.50
2018-09-09T10:29:37.584Z,22.50
2018-09-09T10:32:05.699Z,22.50
2018-09-09T10:34:33.796Z,22.60
2018-09-09T10:37:01.931Z,22.60
2018-09-09T10:39:30.086Z,22.70
2018-09-09T10:41:58.200Z,22.80
2018-09-09T10:44:26.347Z,22.90
2018-09-09T10:46:54.763Z,23.00
2018-09-09T10:49:22.832Z,23.20
2018-09-09T10:51:52.694Z,23.40
2018-09-09T10:54:20.826Z,23.70
2018-09-09T10:56:49.012Z,23.90
2018-09-09T10:59:17.173Z,24.10
2018-09-09T11:01:45.308Z,24.30
2018-09-09T11:04:13.451Z,24.50
2018-09-09T11:06:41.567Z,24.80
2018-09-09T11:09:10.141Z,24.90
2018-09-09T11:11:38.399Z,25.10
2018-09-09T11:14:06.679Z,25.30
2018-09-09T11:16:36.725Z,25.60
2018-09-09T11:19:04.940Z,25.80
2018-09-09T11:21:32.984Z,26.10
2018-09-09T11:24:01.264Z,26.30
2018-09-09T11:26:29.368Z,26.60
2018-09-09T11:28:57.482Z,27.10
2018-09-09T11:31:25.610Z,27.60
2018-09-09T11:33:53.735Z,28.20
2018-09-09T11:36:21.933Z,28.90
2018-09-09T11:38:49.964Z,29.70
2018-09-09T11:41:18.121Z,30.60
2018-09-09T11:43:46.888Z,31.10
2018-09-09T11:46:14.980Z,31.00
2018-09-09T11:48:43.079Z,30.90
2018-09-09T11:51:11.300Z,30.70
2018-09-09T11:53:39.456Z,30.60
2018-09-09T11:56:07.601Z,30.70
2018-09-09T11:58:35.709Z,31.10
2018-09-09T12:01:03.867Z,31.50
2018-09-09T12:03:31.966Z,31.70
2018-09-09T12:06:00.124Z,31.90
2018-09-09T12:08:28.260Z,31.90
2018-09-09T12:10:56.410Z,32.20
2018-09-09T12:13:24.532Z,32.50
2018-09-09T12:15:53.858Z,32.60
2018-09-09T12:18:21.963Z,32.20
2018-09-09T12:20:50.089Z,31.70
2018-09-09T12:23:18.187Z,30.90
2018-09-09T12:25:46.280Z,29.80
2018-09-09T12:28:14.428Z,29.80
2018-09-09T12:30:42.551Z,29.50
2018-09-09T12:33:10.671Z,29.50
2018-09-09T12:35:38.883Z,29.10
2018-09-09T12:38:13.627Z,29.10
2018-09-09T12:40:41.772Z,28.70
2018-09-09T12:43:15.336Z,28.30
2018-09-09T12:45:49.192Z,28.20
2018-09-09T12:51:14.100Z,28.00
2018-09-09T12:53:42.933Z,28.10
2018-09-09T12:56:11.108Z,28.20
2018-09-09T12:58:39.751Z,28.30
2018-09-09T13:01:07.860Z,28.50
2018-09-09T13:03:35.990Z,28.50
2018-09-09T13:06:04.127Z,28.50
2018-09-09T13:08:32.352Z,28.30
2018-09-09T13:11:00.531Z,28.20
2018-09-09T13:13:28.672Z,28.00
2018-09-09T13:15:56.816Z,28.00
2018-09-09T13:18:24.987Z,28.00
2018-09-09T13:20:53.107Z,27.90
2018-09-09T13:23:21.378Z,27.90
2018-09-09T13:25:49.470Z,27.90
2018-09-09T13:28:17.572Z,27.90
2018-09-09T13:30:45.697Z,28.10
2018-09-09T13:33:13.791Z,28.30
2018-09-09T13:35:41.919Z,28.60
2018-09-09T13:38:10.024Z,28.30
2018-09-09T13:40:38.110Z,28.30
2018-09-09T13:43:06.278Z,28.30
2018-09-09T13:45:34.417Z,28.20
2018-09-09T13:48:02.535Z,28.40
2018-09-09T13:50:30.604Z,28.50
2018-09-09T13:52:58.688Z,28.50
2018-09-09T13:55:26.816Z,28.50
2018-09-09T13:57:54.929Z,28.40
2018-09-09T14:00:23.031Z,28.30
2018-09-09T14:02:51.140Z,28.20
2018-09-09T14:05:19.252Z,28.20
2018-09-09T14:07:47.361Z,28.30
2018-09-09T14:10:15.460Z,28.30
2018-09-09T14:12:43.573Z,28.10
2018-09-09T14:15:11.689Z,28.00
2018-09-09T14:17:39.787Z,27.60
2018-09-09T14:20:08.033Z,27.50
2018-09-09T14:22:36.146Z,27.50
2018-09-09T14:27:32.096Z,27.50
2018-09-09T14:30:00.205Z,27.50
2018-09-09T14:32:28.324Z,27.40
2018-09-09T14:34:56.481Z,27.50
2018-09-09T14:37:24.593Z,27.30
2018-09-09T14:39:52.706Z,27.20
2018-09-09T14:42:20.812Z,27.30
2018-09-09T14:44:48.929Z,27.30
2018-09-09T14:47:17.048Z,27.30
2018-09-09T14:49:45.886Z,27.20
2018-09-09T14:52:13.976Z,27.10
2018-09-09T14:54:42.067Z,27.00
2018-09-09T14:57:10.159Z,26.90
2018-09-09T14:59:38.276Z,26.80
2018-09-09T15:02:06.424Z,26.80
2018-09-09T15:04:34.527Z,26.70
2018-09-09T15:07:02.733Z,26.70
2018-09-09T15:09:30.742Z,26.80
2018-09-09T15:11:58.835Z,26.90
2018-09-09T15:14:26.948Z,26.90
2018-09-09T15:16:55.084Z,27.00
2018-09-09T15:19:23.176Z,26.60
2018-09-09T15:21:51.268Z,26.70
2018-09-09T15:24:19.376Z,26.40
2018-09-09T15:26:47.470Z,26.50
2018-09-09T15:29:15.607Z,26.30
2018-09-09T15:31:43.721Z,26.30
2018-09-09T15:34:11.877Z,26.20
2018-09-09T15:39:08.130Z,26.00
2018-09-09T15:41:36.237Z,26.00
2018-09-09T15:44:04.817Z,25.90
2018-09-09T15:46:34.264Z,26.00
2018-09-09T15:49:02.358Z,26.00
2018-09-09T15:51:33.522Z,26.00
2018-09-09T15:54:01.659Z,26.00
2018-09-09T15:56:29.752Z,26.00
2018-09-09T15:58:57.859Z,26.00
2018-09-09T16:01:25.947Z,26.00
2018-09-09T16:03:54.112Z,26.00
2018-09-09T16:06:22.244Z,26.00
2018-09-09T16:08:50.351Z,26.00
2018-09-09T16:13:46.316Z,25.80
2018-09-09T16:16:14.424Z,25.90
2018-09-09T16:18:42.704Z,25.80
2018-09-09T16:33:30.231Z,25.60
2018-09-09T16:35:58.347Z,25.50
2018-09-09T16:38:26.448Z,25.50
2018-09-09T16:40:54.580Z,25.50
2018-09-09T16:48:19.461Z,25.40
2018-09-09T16:50:47.574Z,25.40
2018-09-09T16:55:44.623Z,25.40
2018-09-09T16:58:12.751Z,25.40
2018-09-09T17:00:46.871Z,25.40
2018-09-09T17:03:14.988Z,25.40
2018-09-09T17:05:45.180Z,25.40
2018-09-09T17:08:13.295Z,25.40
2018-09-09T17:10:42.428Z,25.40
2018-09-09T17:13:11.633Z,25.40
2018-09-09T17:15:40.840Z,25.40
2018-09-09T17:18:08.967Z,25.30
2018-09-09T17:20:37.092Z,25.30
2018-09-09T17:23:09.225Z,25.20
2018-09-09T17:25:37.374Z,25.20
2018-09-09T17:28:06.566Z,25.10
2018-09-09T17:30:34.668Z,25.00
2018-09-09T17:33:02.812Z,24.90
2018-09-09T17:35:32.998Z,24.80
2018-09-09T17:38:01.532Z,24.70
2018-09-09T17:40:34.564Z,24.60
2018-09-09T17:43:03.749Z,24.50
2018-09-09T17:45:31.876Z,24.50
2018-09-09T17:48:00.012Z,24.40
2018-09-09T17:50:32.203Z,24.30
2018-09-09T17:53:01.009Z,24.20
2018-09-09T17:55:31.852Z,24.00
2018-09-09T17:57:59.992Z,23.90
2018-09-09T18:00:29.157Z,23.80
2018-09-09T18:02:57.271Z,23.70
2018-09-09T18:05:31.357Z,23.60
2018-09-09T18:07:59.471Z,23.50
2018-09-09T18:10:27.596Z,23.40
2018-09-09T18:12:57.837Z,23.30
2018-09-09T18:15:26.150Z,23.20
2018-09-09T18:18:01.799Z,23.10
2018-09-09T18:20:29.997Z,23.00
2018-09-09T18:22:58.044Z,22.90
2018-09-09T18:25:27.227Z,22.80
2018-09-09T18:28:00.416Z,22.70
2018-09-09T18:30:31.997Z,22.60
2018-09-09T18:33:00.124Z,22.40
2018-09-09T18:35:31.284Z,22.30
2018-09-09T18:38:01.527Z,22.40
2018-09-09T18:43:00.623Z,22.20
2018-09-09T18:45:28.753Z,22.10
2018-09-09T18:47:58.868Z,22.00
2018-09-09T18:52:54.899Z,21.70
2018-09-09T18:55:23.099Z,21.70
2018-09-09T18:57:51.241Z,21.50
2018-09-09T19:02:50.453Z,21.40
2018-09-09T19:05:18.757Z,21.40
2018-09-09T19:07:46.971Z,21.40
2018-09-09T19:15:12.420Z,20.90
2018-09-09T19:17:40.778Z,20.80
2018-09-09T19:22:37.461Z,20.60
2018-09-09T19:25:05.623Z,20.70
2018-09-09T19:27:33.839Z,20.70
2018-09-09T19:30:02.510Z,20.60
2018-09-09T19:32:31.072Z,20.40
2018-09-09T19:37:28.044Z,20.20
2018-09-09T19:42:24.199Z,20.20
2018-09-09T19:44:52.349Z,20.20
2018-09-09T19:47:20.481Z,20.20
2018-09-09T19:49:48.619Z,20.10
2018-09-09T19:54:45.926Z,19.90
2018-09-09T19:57:14.092Z,19.90
2018-09-09T19:59:42.943Z,19.70
2018-09-09T20:02:11.354Z,19.60
2018-09-09T20:09:36.096Z,19.20
2018-09-09T20:12:04.624Z,19.10
2018-09-09T20:14:32.759Z,19.10
2018-09-09T20:17:00.871Z,19.00
2018-09-09T20:19:28.977Z,18.90
2018-09-09T20:21:57.183Z,18.90
2018-09-09T20:24:25.443Z,18.80
2018-09-09T20:26:54.572Z,18.80
2018-09-09T20:29:22.698Z,18.80
2018-09-09T20:31:50.926Z,18.70
2018-09-09T20:34:19.040Z,18.60
2018-09-09T20:36:47.298Z,18.60
2018-09-09T20:39:15.531Z,18.60
2018-09-09T20:41:44.001Z,18.60
2018-09-09T20:44:12.098Z,18.60
2018-09-09T20:46:40.295Z,18.60
2018-09-09T20:49:09.702Z,18.60
2018-09-09T20:51:39.957Z,18.70
2018-09-09T20:54:08.291Z,18.70
2018-09-09T20:56:38.067Z,18.70
2018-09-09T20:59:06.228Z,18.70
2018-09-09T21:01:36.093Z,18.80
2018-09-09T21:04:04.569Z,18.80
2018-09-09T21:06:32.716Z,18.80
2018-09-09T21:09:00.880Z,18.80
2018-09-09T21:11:29.117Z,18.80
2018-09-09T21:13:57.307Z,18.80
2018-09-09T21:16:25.542Z,18.80
2018-09-09T21:18:53.667Z,18.80
2018-09-09T21:21:21.843Z,18.70
2018-09-09T21:23:50.029Z,18.70
2018-09-09T21:26:20.543Z,18.60
2018-09-09T21:28:49.135Z,18.60
2018-09-09T21:31:17.239Z,18.40
2018-09-09T21:36:13.352Z,18.20
2018-09-09T21:38:41.463Z,18.10
2018-09-09T21:41:09.586Z,18.20
2018-09-09T21:43:39.703Z,18.00
2018-09-09T21:46:07.800Z,17.90
2018-09-09T21:48:35.923Z,17.90
2018-09-09T21:53:33.252Z,17.90
2018-09-09T21:58:29.258Z,17.90
2018-09-09T22:03:33.063Z,17.80
2018-09-09T22:06:01.212Z,17.70
2018-09-09T22:08:29.333Z,17.60
2018-09-09T22:18:21.540Z,17.20
2018-09-09T22:20:49.762Z,17.20
2018-09-09T22:23:17.955Z,17.10
2018-09-09T22:28:15.647Z,17.20
2018-09-09T22:30:44.843Z,17.10
2018-09-09T22:35:41.343Z,17.10
2018-09-09T22:38:09.507Z,17.10
2018-09-09T22:43:05.724Z,17.10
2018-09-09T22:45:33.851Z,17.00
2018-09-09T22:52:58.082Z,16.80
2018-09-09T22:55:26.190Z,16.90
2018-09-09T23:00:23.248Z,16.80
2018-09-09T23:02:52.459Z,16.90
2018-09-09T23:12:44.341Z,16.90
2018-09-09T23:17:40.353Z,16.90
2018-09-09T23:22:36.316Z,16.80
2018-09-09T23:27:32.339Z,16.90
2018-09-09T23:30:00.447Z,16.90
